Terminal Aerodrome Forecast
Issued by NWS Corpus Christi, TX

Home | Current Version | Previous Version | Text Only | Print | Product List | Glossary On
Versions: 1 2 3 4 5 6 7 8 9 10 11 12 13 14 15 16 17 18 19 20 21 22 23
963
FTUS44 KCRP 241742
TAFVCT
TAF
KVCT 241742Z 2418/2518 14012KT P6SM SCT025 OVC050
     FM242000 12014G20KT P6SM BKN025 BKN050
      TEMPO 2420/2422 SCT025 BKN050
     FM250100 13010KT P6SM SCT020 BKN250
     FM250500 13007KT P6SM BKN015
     FM250900 12005KT 4SM BR BKN007 OVC015
     FM251400 15012KT P6SM SCT015 BKN025=

USA.gov is the U.S. government's official web portal to all federal, state and local government web resources and services.